Time;durP1;ratioP1;P1;durP2;ratioP2;P2;SDS_P1;SDS_P2;PMS_P1;PMS_P2;Temp;Humidity;BMP_temperature;BMP_pressure;BME280_temperature;BME280_humidity;BME280_pressure;Samples;Min_cycle;Max_cycle;Signal;HPM_P1;HPM_P2
2021/02/20 00:01:17;;;;;;;0.60;0.60;;;;;;;6.78;78.97;97090.25;299395;317;63009;-56
2021/02/20 00:06:18;;;;;;;0.70;0.70;;;;;;;6.75;79.32;97094.28;299395;223;63004;-56
2021/02/20 00:11:19;;;;;;;0.70;0.70;;;;;;;6.79;79.20;97091.88;299395;228;63009;-56
2021/02/20 00:16:20;;;;;;;0.60;0.60;;;;;;;6.76;79.22;97089.69;299395;233;63005;-55
2021/02/20 00:21:21;;;;;;;0.60;0.60;;;;;;;6.77;78.49;97091.31;299395;264;63008;-55
2021/02/20 00:26:24;;;;;;;0.60;0.60;;;;;;;6.77;78.26;97085.91;299395;236;63005;-54
2021/02/20 00:31:25;;;;;;;0.60;0.60;;;;;;;6.66;78.46;97080.47;299394;210;64009;-54
2021/02/20 00:36:26;;;;;;;0.60;0.60;;;;;;;6.58;79.05;97083.69;299395;237;63009;-55
2021/02/20 00:41:27;;;;;;;0.60;0.60;;;;;;;6.53;79.37;97080.16;299395;224;63009;-56
2021/02/20 00:46:28;;;;;;;0.60;0.60;;;;;;;6.51;78.92;97083.13;299395;204;63005;-55
2021/02/20 00:51:30;;;;;;;0.60;0.60;;;;;;;6.54;78.80;97087.19;299395;253;63008;-53
2021/02/20 00:56:31;;;;;;;0.60;0.60;;;;;;;6.56;78.19;97083.16;299395;244;63008;-54
2021/02/20 01:01:32;;;;;;;0.60;0.60;;;;;;;6.58;78.10;97077.50;299395;212;63009;-54
2021/02/20 01:06:36;;;;;;;0.60;0.60;;;;;;;6.51;78.18;97083.13;299395;272;63004;-54
2021/02/20 01:11:39;;;;;;;0.60;0.60;;;;;;;6.46;78.47;97085.78;299417;214;63009;-54
2021/02/20 01:16:40;;;;;;;0.60;0.60;;;;;;;6.50;78.36;97086.88;299395;244;63005;-54
2021/02/20 01:21:41;;;;;;;0.60;0.60;;;;;;;6.44;78.32;97093.31;299395;234;63016;-54
2021/02/20 01:26:43;;;;;;;0.60;0.60;;;;;;;6.37;78.71;97087.34;299396;214;63004;-54
2021/02/20 01:31:43;;;;;;;0.60;0.60;;;;;;;6.41;78.43;97082.25;299396;218;63009;-54
2021/02/20 01:36:46;;;;;;;0.70;0.70;;;;;;;6.36;78.72;97085.72;299396;211;63010;-54
2021/02/20 01:41:47;;;;;;;0.60;0.60;;;;;;;6.36;78.64;97091.09;299396;215;63009;-54
2021/02/20 01:46:48;;;;;;;0.60;0.60;;;;;;;6.33;78.62;97091.63;299396;252;63005;-55
2021/02/20 01:51:51;;;;;;;0.60;0.60;;;;;;;6.27;78.79;97087.28;299396;208;63008;-54
2021/02/20 01:56:53;;;;;;;0.60;0.60;;;;;;;6.21;78.97;97082.94;299396;238;63004;-54
2021/02/20 02:01:54;;;;;;;0.60;0.60;;;;;;;6.21;78.61;97077.56;299396;213;63009;-54
2021/02/20 02:06:55;;;;;;;0.60;0.60;;;;;;;6.24;78.58;97066.25;299396;199;63005;-54
2021/02/20 02:11:56;;;;;;;0.60;0.60;;;;;;;6.21;78.33;97058.69;299397;207;63009;-54
2021/02/20 02:17:23;;;;;;;0.60;0.60;;;;;;;6.20;78.57;97059.78;299397;225;63005;-54
2021/02/20 02:23:08;;;;;;;0.70;0.70;;;;;;;6.24;78.16;97052.75;299396;334;63009;-56
2021/02/20 02:28:58;;;;;;;0.62;0.62;;;;;;;6.23;78.06;97049.28;299396;214;63008;-55
2021/02/20 02:34:01;;;;;;;0.60;0.60;;;;;;;6.25;77.69;97038.22;299396;225;63004;-55
2021/02/20 02:39:05;;;;;;;0.60;0.60;;;;;;;6.27;77.76;97044.16;299396;212;63018;-54
2021/02/20 02:44:11;;;;;;;0.60;0.60;;;;;;;6.25;77.57;97038.22;299396;321;63005;-55
2021/02/20 02:49:13;;;;;;;0.60;0.60;;;;;;;6.18;78.01;97034.97;299396;245;63009;-54
2021/02/20 02:54:17;;;;;;;0.60;0.60;;;;;;;6.07;78.56;97033.28;299396;263;63005;-54
2021/02/20 02:59:20;;;;;;;0.63;0.63;;;;;;;5.93;79.43;97027.53;299418;207;63009;-55
2021/02/20 03:04:27;;;;;;;0.60;0.60;;;;;;;5.82;79.74;97033.91;299397;202;63004;-55
2021/02/20 03:09:29;;;;;;;0.60;0.60;;;;;;;5.75;80.18;97039.50;299397;198;63013;-54
2021/02/20 03:14:30;;;;;;;0.60;0.60;;;;;;;5.72;80.22;97040.84;299395;226;63005;-54
2021/02/20 03:19:31;;;;;;;0.60;0.60;;;;;;;5.70;80.29;97037.59;299395;218;63009;-54
2021/02/20 03:24:37;;;;;;;0.60;0.60;;;;;;;5.65;80.64;97042.94;299394;196;63995;-56
2021/02/20 03:29:38;;;;;;;0.60;0.60;;;;;;;5.62;80.89;97039.94;299395;197;63009;-56
2021/02/20 03:34:41;;;;;;;0.70;0.70;;;;;;;5.53;81.07;97028.84;299395;244;63004;-53
2021/02/20 03:39:43;;;;;;;0.60;0.60;;;;;;;5.54;81.28;97029.66;299395;235;63009;-54
2021/02/20 03:44:46;;;;;;;0.60;0.60;;;;;;;5.57;80.71;97029.13;299395;202;63005;-54
2021/02/20 03:49:51;;;;;;;0.60;0.60;;;;;;;5.63;80.52;97022.72;299395;223;63009;-55
2021/02/20 03:54:54;;;;;;;0.60;0.60;;;;;;;5.66;80.23;97027.59;299395;223;63005;-54
2021/02/20 03:59:59;;;;;;;0.60;0.60;;;;;;;5.66;80.24;97027.59;299395;214;63009;-54
2021/02/20 04:05:03;;;;;;;0.60;0.60;;;;;;;5.73;79.67;97022.81;299417;233;63004;-55
2021/02/20 04:10:06;;;;;;;0.60;0.60;;;;;;;5.78;79.07;97025.53;299417;199;63009;-54
2021/02/20 04:15:17;;;;;;;0.60;0.60;;;;;;;5.74;79.30;97024.41;299395;229;63005;-53
2021/02/20 04:20:18;;;;;;;0.60;0.60;;;;;;;5.67;79.79;97023.81;299395;270;63008;-54
2021/02/20 04:25:19;;;;;;;0.62;0.62;;;;;;;5.63;79.85;97020.03;299395;297;63017;-54
2021/02/20 04:30:22;;;;;;;0.60;0.60;;;;;;;5.63;79.81;97017.34;299395;204;63009;-54
2021/02/20 04:35:28;;;;;;;0.60;0.60;;;;;;;5.65;79.67;97025.97;299395;230;63004;-53
2021/02/20 04:40:31;;;;;;;0.60;0.60;;;;;;;5.61;79.87;97025.66;299395;318;63009;-53
2021/02/20 04:45:32;;;;;;;0.60;0.60;;;;;;;5.57;79.84;97029.13;299395;232;63005;-54
2021/02/20 04:50:33;;;;;;;0.60;0.60;;;;;;;5.53;79.95;97015.41;299395;232;63008;-53
2021/02/20 04:55:34;;;;;;;0.60;0.60;;;;;;;5.51;80.06;97009.47;299395;202;63004;-54
2021/02/20 05:00:36;;;;;;;0.60;0.60;;;;;;;5.56;79.71;97008.66;299395;259;63009;-53
2021/02/20 05:05:37;;;;;;;0.60;0.60;;;;;;;5.59;79.59;97005.47;299395;207;63005;-54
2021/02/20 05:10:37;;;;;;;0.60;0.60;;;;;;;5.57;79.50;97003.03;299395;231;63009;-54
2021/02/20 05:15:40;;;;;;;0.60;0.60;;;;;;;5.56;79.74;97016.72;299395;211;63008;-54
2021/02/20 05:20:41;;;;;;;0.60;0.60;;;;;;;5.47;79.92;97008.34;299395;200;63009;-55
2021/02/20 05:25:42;;;;;;;0.60;0.60;;;;;;;5.38;80.22;97016.06;299395;212;63004;-54
2021/02/20 05:30:43;;;;;;;0.60;0.60;;;;;;;5.29;80.42;97017.59;299395;229;63017;-54
2021/02/20 05:35:44;;;;;;;0.60;0.60;;;;;;;5.27;80.42;97019.72;299395;235;63005;-55
2021/02/20 05:40:47;;;;;;;0.60;0.60;;;;;;;5.26;80.36;97017.31;299395;237;63009;-54
2021/02/20 05:45:48;;;;;;;0.60;0.60;;;;;;;5.25;80.64;97019.19;299395;196;63010;-55
2021/02/20 05:50:51;;;;;;;0.60;0.60;;;;;;;5.17;80.83;97018.84;299395;216;63009;-53
2021/02/20 05:55:57;;;;;;;0.60;0.60;;;;;;;5.08;81.00;97023.06;299395;321;63004;-54
2021/02/20 06:00:58;;;;;;;0.60;0.60;;;;;;;4.99;80.95;97022.69;299394;211;64009;-54
2021/02/20 06:06:00;;;;;;;0.60;0.60;;;;;;;4.94;81.57;97036.09;299395;228;63005;-54
2021/02/20 06:11:01;;;;;;;0.60;0.60;;;;;;;4.86;81.60;97033.84;299395;226;63009;-53
2021/02/20 06:16:04;;;;;;;0.60;0.60;;;;;;;4.63;82.15;97046.50;299395;222;63005;-54
2021/02/20 06:21:16;;;;;;;0.70;0.70;;;;;;;4.64;82.45;97044.63;299395;211;63009;-54
2021/02/20 06:26:20;;;;;;;0.70;0.70;;;;;;;4.54;83.32;97058.75;299395;221;63004;-55
2021/02/20 06:31:37;;;;;;;0.60;0.60;;;;;;;4.54;83.84;97063.31;299417;204;63009;-54
2021/02/20 06:36:53;;;;;;;0.60;0.60;;;;;;;4.53;83.13;97073.25;299395;293;63005;-54
2021/02/20 06:42:02;;;;;;;0.60;0.60;;;;;;;4.35;83.32;97078.94;299395;222;63008;-55
2021/02/20 06:47:18;;;;;;;0.70;0.70;;;;;;;4.51;83.07;97083.44;299395;239;63004;-54
2021/02/20 06:52:28;;;;;;;0.60;0.60;;;;;;;4.68;82.71;97078.84;299395;208;63009;-54
2021/02/20 06:57:55;;;;;;;0.70;0.70;;;;;;;4.84;81.81;97084.41;299395;212;63005;-56
2021/02/20 07:02:58;;;;;;;0.60;0.60;;;;;;;4.95;81.42;97075.38;299395;240;63009;-54
2021/02/20 07:08:00;;;;;;;0.60;0.60;;;;;;;5.07;80.89;97072.53;299395;238;63010;-54
2021/02/20 07:13:02;;;;;;;0.60;0.60;;;;;;;5.14;80.81;97071.28;299395;238;63009;-54
2021/02/20 07:18:04;;;;;;;0.60;0.60;;;;;;;5.19;80.54;97071.34;299395;218;63004;-54
2021/02/20 07:23:08;;;;;;;0.60;0.60;;;;;;;5.31;80.33;97068.47;299395;199;63009;-53
2021/02/20 07:28:29;;;;;;;0.70;0.70;;;;;;;5.49;79.33;97075.38;299417;300;63005;-55
2021/02/20 07:33:38;;;;;;;0.60;0.60;;;;;;;5.63;78.67;97081.94;299373;248;63008;-55
2021/02/20 07:38:42;;;;;;;0.60;0.60;;;;;;;5.75;77.89;97071.81;299395;214;63004;-54
2021/02/20 07:43:43;;;;;;;0.60;0.60;;;;;;;5.81;77.90;97084.25;299395;206;63009;-55
2021/02/20 07:48:44;;;;;;;0.60;0.60;;;;;;;5.88;77.45;97084.84;299395;216;63004;-54
2021/02/20 07:53:47;;;;;;;0.60;0.60;;;;;;;5.95;77.14;97085.44;299395;227;63009;-56
2021/02/20 07:58:48;;;;;;;0.60;0.60;;;;;;;6.23;75.52;97078.94;299395;200;63005;-57
2021/02/20 08:04:18;;;;;;;0.60;0.60;;;;;;;6.45;74.96;97100.34;299395;212;63008;-56
2021/02/20 08:10:03;;;;;;;0.60;0.60;;;;;;;6.55;74.93;97104.97;299395;228;63004;-54
2021/02/20 08:15:29;;;;;;;0.60;0.60;;;;;;;6.72;74.59;97101.00;299395;233;63005;-54
2021/02/20 08:20:30;;;;;;;0.60;0.60;;;;;;;6.80;74.73;97115.06;299417;232;63005;-55
2021/02/20 08:25:31;;;;;;;0.60;0.60;;;;;;;6.93;74.15;97122.69;299395;225;63008;-54
2021/02/20 08:30:42;;;;;;;0.60;0.60;;;;;;;7.36;72.19;97124.97;299395;209;63004;-56
2021/02/20 08:35:46;;;;;;;0.60;0.60;;;;;;;7.61;71.33;97124.22;299395;244;63009;-55
2021/02/20 08:41:13;;;;;;;0.60;0.60;;;;;;;7.96;69.97;97119.91;299395;232;63004;-54
2021/02/20 08:46:16;;;;;;;0.60;0.60;;;;;;;8.17;69.25;97126.13;299395;247;63009;-54
2021/02/20 08:51:25;;;;;;;0.60;0.60;;;;;;;8.42;68.30;97128.81;299395;290;63005;-55
2021/02/20 08:56:26;;;;;;;0.60;0.60;;;;;;;8.57;67.18;97122.56;299395;243;63009;-54
2021/02/20 09:01:35;;;;;;;0.60;0.60;;;;;;;8.88;66.50;97134.13;299395;229;63004;-55
2021/02/20 09:06:39;;;;;;;0.60;0.60;;;;;;;9.22;65.78;97136.97;299395;222;63009;-55
2021/02/20 09:11:40;;;;;;;0.80;0.80;;;;;;;9.46;64.31;97121.66;299417;214;63005;-54
2021/02/20 09:16:46;;;;;;;0.77;0.77;;;;;;;9.74;63.92;97122.81;299395;291;63009;-58
2021/02/20 09:21:51;;;;;;;0.60;0.60;;;;;;;10.01;62.36;97116.94;299395;198;63005;-55
2021/02/20 09:26:59;;;;;;;0.60;0.60;;;;;;;10.09;61.70;97105.47;299395;205;63009;-55
2021/02/20 09:32:07;;;;;;;0.60;0.60;;;;;;;10.08;61.28;97095.72;299395;202;63004;-56
2021/02/20 09:37:08;;;;;;;0.77;0.77;;;;;;;10.00;61.27;97099.88;299395;240;63009;-57
2021/02/20 09:42:17;;;;;;;0.50;0.50;;;;;;;10.00;61.97;97109.91;299395;272;63005;-55
2021/02/20 09:47:18;;;;;;;0.60;0.60;;;;;;;10.04;61.29;97109.06;299395;218;63009;-56
2021/02/20 09:52:27;;;;;;;0.50;0.50;;;;;;;10.04;60.66;97111.78;299395;262;63010;-54
2021/02/20 09:57:38;;;;;;;0.50;0.50;;;;;;;10.16;61.64;97113.28;299395;336;63009;-56
2021/02/20 10:02:39;;;;;;;0.60;0.60;;;;;;;10.16;60.76;97119.53;299395;325;63004;-55
2021/02/20 10:07:40;;;;;;;0.60;0.60;;;;;;;10.37;59.51;97109.34;299395;205;63009;-53
2021/02/20 10:12:41;;;;;;;0.50;0.50;;;;;;;10.45;58.58;97105.19;299395;324;63005;-55
2021/02/20 10:17:42;;;;;;;0.60;0.60;;;;;;;10.57;57.92;97102.88;299395;204;63008;-55
2021/02/20 10:22:46;;;;;;;0.50;0.50;;;;;;;10.52;56.82;97094.81;299395;202;63010;-54
2021/02/20 10:27:47;;;;;;;0.60;0.60;;;;;;;10.61;58.92;97104.75;299417;254;63009;-54
2021/02/20 10:32:48;;;;;;;0.50;0.50;;;;;;;10.74;60.25;97101.31;299372;272;63004;-56
2021/02/20 10:37:48;;;;;;;0.50;0.50;;;;;;;10.83;60.29;97089.84;299395;262;63009;-54
2021/02/20 10:42:49;;;;;;;0.50;0.50;;;;;;;10.95;60.20;97092.97;299395;248;63005;-55
2021/02/20 10:47:52;;;;;;;0.60;0.60;;;;;;;11.01;61.29;97086.38;299395;208;63008;-55
2021/02/20 10:53:00;;;;;;;0.50;0.50;;;;;;;11.09;60.95;97088.44;299395;236;63004;-54
2021/02/20 10:58:01;;;;;;;0.50;0.50;;;;;;;11.14;60.52;97074.78;299395;334;63009;-55
2021/02/20 11:03:04;;;;;;;0.50;0.50;;;;;;;11.17;58.91;97074.22;299395;208;63004;-56
2021/02/20 11:08:06;;;;;;;0.60;0.60;;;;;;;11.33;59.28;97063.94;299395;258;63009;-55
2021/02/20 11:13:07;;;;;;;0.50;0.50;;;;;;;11.49;58.15;97064.53;299395;220;63005;-56
2021/02/20 11:18:08;;;;;;;0.50;0.50;;;;;;;11.56;57.47;97040.50;299395;210;63008;-54
2021/02/20 11:23:09;;;;;;;0.50;0.50;;;;;;;11.64;57.70;97034.41;299395;227;63004;-55
2021/02/20 11:28:15;;;;;;;0.50;0.50;;;;;;;11.72;57.45;97031.84;299395;231;63019;-56
2021/02/20 11:33:16;;;;;;;0.50;0.50;;;;;;;11.77;57.74;97028.25;299394;224;64005;-55
2021/02/20 11:38:20;;;;;;;0.50;0.50;;;;;;;11.86;56.94;97015.59;299395;204;63009;-55
2021/02/20 11:43:21;;;;;;;0.50;0.50;;;;;;;12.03;55.19;97007.69;299417;237;63005;-54
2021/02/20 11:48:22;;;;;;;0.50;0.50;;;;;;;12.16;56.10;97010.72;299395;215;63009;-56
2021/02/20 11:53:23;;;;;;;0.50;0.50;;;;;;;12.37;55.91;96992.91;299395;279;63004;-54
2021/02/20 11:58:24;;;;;;;2.00;1.90;;;;;;;12.61;53.22;96982.63;299395;214;63005;-54
2021/02/20 12:03:25;;;;;;;0.60;0.60;;;;;;;12.77;52.81;96985.03;299395;264;63005;-56
2021/02/20 12:08:26;;;;;;;0.50;0.50;;;;;;;12.92;51.84;96966.44;299395;213;63009;-54
2021/02/20 12:13:27;;;;;;;0.50;0.50;;;;;;;13.07;50.73;96957.94;299395;213;63005;-55
2021/02/20 12:18:27;;;;;;;0.90;0.90;;;;;;;13.28;49.86;96941.94;299395;291;63009;-57
2021/02/20 12:23:29;;;;;;;0.50;0.50;;;;;;;13.36;48.56;96929.50;299395;196;63004;-54
2021/02/20 12:28:29;;;;;;;0.50;0.50;;;;;;;13.49;48.10;96930.56;299395;361;63009;-56
2021/02/20 12:33:31;;;;;;;0.57;0.57;;;;;;;13.65;47.08;96926.34;299395;255;63005;-55
2021/02/20 12:38:32;;;;;;;0.50;0.50;;;;;;;13.70;46.09;96915.31;299395;471;63009;-55
2021/02/20 12:43:33;;;;;;;0.50;0.50;;;;;;;13.90;46.34;96914.75;299395;204;63005;-56
2021/02/20 12:48:34;;;;;;;0.50;0.50;;;;;;;13.94;45.22;96907.56;299395;221;63009;-56
2021/02/20 12:53:35;;;;;;;0.50;0.50;;;;;;;14.07;44.36;96903.94;299395;224;63010;-55
2021/02/20 12:58:36;;;;;;;0.50;0.50;;;;;;;14.08;44.56;96889.19;299395;222;63009;-56
2021/02/20 13:03:37;;;;;;;0.50;0.50;;;;;;;14.14;46.33;96905.41;299395;217;63005;-55
2021/02/20 13:08:38;;;;;;;0.50;0.50;;;;;;;14.19;46.10;96895.16;299395;205;63009;-57
2021/02/20 13:13:39;;;;;;;0.50;0.50;;;;;;;14.39;46.35;96889.13;299395;228;63004;-55
2021/02/20 13:18:40;;;;;;;0.50;0.50;;;;;;;14.40;45.25;96863.44;299395;202;63009;-54
2021/02/20 13:23:41;;;;;;;0.50;0.50;;;;;;;14.43;45.18;96856.56;299395;207;63004;-56
2021/02/20 13:28:42;;;;;;;0.50;0.50;;;;;;;14.43;46.11;96862.03;299395;204;63009;-54
2021/02/20 13:33:43;;;;;;;0.50;0.50;;;;;;;14.50;46.21;96862.38;299395;217;63005;-54
2021/02/20 13:38:48;;;;;;;0.50;0.50;;;;;;;14.48;45.18;96859.16;299395;221;63013;-57
2021/02/20 13:43:51;;;;;;;0.50;0.50;;;;;;;14.62;43.81;96846.13;299417;218;63004;-56
2021/02/20 13:48:52;;;;;;;0.50;0.50;;;;;;;14.70;44.86;96845.34;299417;247;63009;-55
2021/02/20 13:53:53;;;;;;;0.50;0.50;;;;;;;14.77;44.01;96841.34;299395;225;63004;-54
2021/02/20 13:58:54;;;;;;;0.50;0.50;;;;;;;14.81;42.67;96836.84;299395;214;63009;-60
2021/02/20 14:03:56;;;;;;;0.50;0.50;;;;;;;14.82;43.01;96841.19;299396;214;63015;-62
2021/02/20 14:08:57;;;;;;;0.50;0.50;;;;;;;14.95;42.30;96832.00;299396;197;63004;-58
2021/02/20 14:13:58;;;;;;;0.50;0.50;;;;;;;14.98;42.22;96834.09;299396;273;63004;-58
2021/02/20 14:18:59;;;;;;;0.50;0.50;;;;;;;14.99;42.30;96832.97;299396;196;63009;-58
2021/02/20 14:24:00;;;;;;;0.50;0.50;;;;;;;15.04;44.48;96832.81;299396;268;63010;-67
2021/02/20 14:29:02;;;;;;;0.50;0.50;;;;;;;15.06;42.83;96841.50;299396;210;63009;-59
2021/02/20 14:34:05;;;;;;;0.50;0.50;;;;;;;15.09;41.95;96835.38;299396;199;63005;-61
2021/02/20 14:39:08;;;;;;;0.50;0.50;;;;;;;15.24;42.50;96832.16;299396;251;63009;-59
2021/02/20 14:44:10;;;;;;;0.80;0.80;;;;;;;15.22;42.42;96831.69;299397;213;63004;-62
2021/02/20 14:49:11;;;;;;;0.50;0.50;;;;;;;15.24;41.43;96832.16;299397;202;63009;-68
2021/02/20 14:54:12;;;;;;;0.50;0.50;;;;;;;15.36;41.24;96829.53;299397;203;63005;-60
2021/02/20 14:59:13;;;;;;;0.50;0.50;;;;;;;15.55;39.19;96825.66;299396;202;63020;-55
2021/02/20 15:04:14;;;;;;;0.50;0.50;;;;;;;15.60;39.76;96820.00;299396;274;63005;-55
2021/02/20 15:09:15;;;;;;;0.50;0.50;;;;;;;15.61;40.91;96827.09;299396;238;63009;-56
2021/02/20 15:14:16;;;;;;;0.50;0.50;;;;;;;15.53;38.93;96816.97;299396;257;63004;-55
2021/02/20 15:19:19;;;;;;;0.50;0.50;;;;;;;15.38;38.20;96813.63;299396;270;63009;-56
2021/02/20 15:24:20;;;;;;;0.50;0.50;;;;;;;15.27;37.83;96809.63;299396;205;63005;-55
2021/02/20 15:29:21;;;;;;;0.50;0.50;;;;;;;15.22;36.40;96807.09;299396;241;63009;-55
2021/02/20 15:34:22;;;;;;;0.50;0.50;;;;;;;15.16;37.59;96813.84;299396;196;63005;-54
2021/02/20 15:39:26;;;;;;;0.50;0.50;;;;;;;15.10;37.08;96806.94;299396;198;63009;-53
2021/02/20 15:44:27;;;;;;;0.50;0.50;;;;;;;15.11;35.20;96794.88;299418;202;63004;-56
2021/02/20 15:49:29;;;;;;;0.50;0.50;;;;;;;15.03;36.05;96809.34;299395;207;63009;-55
2021/02/20 15:54:32;;;;;;;0.50;0.50;;;;;;;14.92;36.15;96808.06;299395;268;63005;-53
2021/02/20 15:59:36;;;;;;;0.50;0.50;;;;;;;14.79;36.18;96809.06;299395;222;63009;-54
2021/02/20 16:04:37;;;;;;;0.50;0.50;;;;;;;14.67;37.83;96820.59;299417;241;63005;-55
2021/02/20 16:09:38;;;;;;;0.50;0.50;;;;;;;14.46;37.97;96823.16;299395;210;63009;-53
2021/02/20 16:14:39;;;;;;;0.50;0.50;;;;;;;14.32;38.77;96817.81;299395;220;63004;-55
2021/02/20 16:19:40;;;;;;;0.50;0.50;;;;;;;14.32;37.25;96819.72;299395;204;63009;-54
2021/02/20 16:24:44;;;;;;;0.50;0.50;;;;;;;14.17;38.73;96825.66;299395;217;63005;-55
2021/02/20 16:29:45;;;;;;;;;;;;;;;14.06;38.73;96831.41;299996;983;6004;-53
2021/02/20 16:34:46;;;;;;;0.50;0.50;;;;;;;13.85;40.03;96843.19;299400;260;63009;-54
2021/02/20 16:39:47;;;;;;;0.50;0.50;;;;;;;13.72;40.23;96839.44;299395;225;63005;-56
2021/02/20 16:44:48;;;;;;;0.50;0.50;;;;;;;13.57;40.19;96835.19;299395;264;63008;-55
2021/02/20 16:49:49;;;;;;;0.50;0.50;;;;;;;13.45;41.60;96839.63;299395;198;63004;-54
2021/02/20 16:54:50;;;;;;;0.50;0.50;;;;;;;13.40;39.46;96835.94;299395;220;63009;-56
2021/02/20 16:59:53;;;;;;;0.50;0.50;;;;;;;13.24;40.94;96842.88;299395;222;63004;-54
2021/02/20 17:04:54;;;;;;;0.50;0.50;;;;;;;13.12;41.07;96839.88;299395;216;63009;-55
2021/02/20 17:09:55;;;;;;;0.50;0.50;;;;;;;12.98;41.83;96850.03;299395;244;63005;-54
2021/02/20 17:14:56;;;;;;;0.50;0.50;;;;;;;12.88;41.35;96850.25;299395;199;63008;-55
2021/02/20 17:19:57;;;;;;;0.50;0.50;;;;;;;12.77;41.82;96857.06;299395;236;63004;-55
2021/02/20 17:24:58;;;;;;;0.50;0.50;;;;;;;12.68;42.32;96863.25;299395;228;63009;-55
2021/02/20 17:30:00;;;;;;;0.50;0.50;;;;;;;12.57;42.96;96872.75;299395;366;63004;-54
2021/02/20 17:35:01;;;;;;;0.50;0.50;;;;;;;12.52;42.71;96875.56;299395;220;63009;-54
2021/02/20 17:40:06;;;;;;;0.50;0.50;;;;;;;12.50;42.27;96877.78;299395;200;63005;-54
2021/02/20 17:45:08;;;;;;;;;;;;;;;12.46;42.87;96882.25;299996;983;6013;-55
2021/02/20 17:50:10;;;;;;;0.50;0.50;;;;;;;12.45;42.67;96883.37;299400;224;63009;-55
2021/02/20 17:55:13;;;;;;;0.50;0.50;;;;;;;12.41;42.87;96890.53;299395;300;63005;-55
2021/02/20 18:00:20;;;;;;;0.50;0.50;;;;;;;12.39;42.74;96884.56;299395;223;63009;-54
2021/02/20 18:05:22;;;;;;;0.50;0.50;;;;;;;12.34;42.91;96890.13;299395;275;63004;-54
2021/02/20 18:10:25;;;;;;;0.50;0.50;;;;;;;12.24;43.33;96898.47;299395;300;63009;-53
2021/02/20 18:15:29;;;;;;;0.50;0.50;;;;;;;12.10;43.80;96900.41;299395;248;63005;-56
2021/02/20 18:20:30;;;;;;;0.50;0.50;;;;;;;12.00;43.95;96913.09;299417;229;63009;-57
2021/02/20 18:25:31;;;;;;;0.50;0.50;;;;;;;12.01;43.41;96909.28;299395;253;63005;-55
2021/02/20 18:30:31;;;;;;;0.50;0.50;;;;;;;11.98;43.91;96909.88;299395;304;63009;-55
2021/02/20 18:35:33;;;;;;;0.50;0.50;;;;;;;11.96;43.67;96909.38;299395;263;63004;-54
2021/02/20 18:40:34;;;;;;;0.50;0.50;;;;;;;11.90;43.83;96907.84;299395;282;63009;-55
2021/02/20 18:45:35;;;;;;;0.50;0.50;;;;;;;11.86;44.12;96917.72;299395;373;63005;-55
2021/02/20 18:50:37;;;;;;;0.60;0.60;;;;;;;11.74;44.72;96925.53;299395;238;63009;-56
2021/02/20 18:55:38;;;;;;;0.60;0.60;;;;;;;11.66;44.85;96926.22;299395;208;63005;-54
2021/02/20 19:00:40;;;;;;;0.50;0.50;;;;;;;11.59;45.33;96931.22;299395;363;63022;-54
2021/02/20 19:05:41;;;;;;;0.50;0.50;;;;;;;11.53;44.69;96930.50;299395;241;63004;-55
2021/02/20 19:10:43;;;;;;;0.50;0.50;;;;;;;11.43;45.05;96929.87;299395;196;63018;-55
2021/02/20 19:15:44;;;;;;;0.50;0.50;;;;;;;11.42;44.89;96929.06;299395;230;63005;-56
2021/02/20 19:20:45;;;;;;;0.50;0.50;;;;;;;11.35;45.10;96931.34;299395;222;63009;-53
2021/02/20 19:25:47;;;;;;;0.50;0.50;;;;;;;11.31;45.03;96928.41;299395;218;63004;-55
2021/02/20 19:30:49;;;;;;;0.50;0.50;;;;;;;11.19;46.03;96930.78;299395;207;63009;-55
2021/02/20 19:35:50;;;;;;;0.60;0.60;;;;;;;11.10;46.08;96937.97;299395;218;63004;-55
2021/02/20 19:40:52;;;;;;;0.50;0.50;;;;;;;11.06;46.12;96942.41;299395;225;63009;-54
2021/02/20 19:45:55;;;;;;;0.60;0.60;;;;;;;11.04;46.07;96931.84;299395;256;63005;-54
2021/02/20 19:50:57;;;;;;;0.60;0.60;;;;;;;11.01;46.21;96937.03;299395;202;63008;-53
2021/02/20 19:55:59;;;;;;;0.60;0.60;;;;;;;10.99;46.46;96941.97;299395;212;63004;-55
2021/02/20 20:01:03;;;;;;;0.60;0.60;;;;;;;10.96;46.40;96937.94;299395;236;63009;-54
2021/02/20 20:06:05;;;;;;;0.57;0.57;;;;;;;10.96;46.44;96937.13;299395;272;63004;-54
2021/02/20 20:11:06;;;;;;;0.50;0.50;;;;;;;10.88;46.99;96946.72;299395;239;63009;-53
2021/02/20 20:16:07;;;;;;;0.50;0.50;;;;;;;10.77;47.24;96949.88;299395;262;63005;-56
2021/02/20 20:21:09;;;;;;;0.50;0.50;;;;;;;10.57;48.23;96954.47;299395;248;63008;-56
2021/02/20 20:26:10;;;;;;;0.60;0.60;;;;;;;10.40;48.50;96956.84;299395;214;63004;-54
2021/02/20 20:31:11;;;;;;;0.60;0.60;;;;;;;10.41;48.93;96953.03;299395;242;63009;-57
2021/02/20 20:36:12;;;;;;;0.50;0.50;;;;;;;10.40;49.16;96952.22;299395;220;63005;-56
2021/02/20 20:41:14;;;;;;;0.50;0.50;;;;;;;10.34;49.10;96941.75;299395;202;63009;-55
2021/02/20 20:46:15;;;;;;;1.08;1.08;;;;;;;10.42;49.02;96949.22;299395;215;63012;-55
2021/02/20 20:51:16;;;;;;;0.60;0.60;;;;;;;10.32;49.26;96954.78;299395;253;63009;-55
2021/02/20 20:56:17;;;;;;;0.60;0.60;;;;;;;10.24;49.62;96952.72;299395;208;63004;-54
2021/02/20 21:01:18;;;;;;;0.60;0.60;;;;;;;10.26;49.88;96951.34;299395;314;63009;-57
2021/02/20 21:06:20;;;;;;;0.50;0.50;;;;;;;10.18;50.13;96951.13;299395;205;63005;-54
2021/02/20 21:11:22;;;;;;;0.60;0.60;;;;;;;10.10;50.43;96947.13;299395;199;63009;-53
2021/02/20 21:16:23;;;;;;;0.50;0.50;;;;;;;9.92;51.42;96945.97;299395;357;63005;-53
2021/02/20 21:21:25;;;;;;;0.50;0.50;;;;;;;9.80;51.64;96948.25;299395;272;63009;-55
2021/02/20 21:26:27;;;;;;;0.50;0.50;;;;;;;9.67;52.46;96947.06;299395;203;63004;-54
2021/02/20 21:31:29;;;;;;;0.57;0.57;;;;;;;9.62;52.45;96944.37;299395;216;63009;-54
2021/02/20 21:36:30;;;;;;;0.50;0.50;;;;;;;9.58;53.06;96945.25;299395;215;63005;-53
2021/02/20 21:41:31;;;;;;;0.50;0.50;;;;;;;9.48;53.17;96945.31;299395;213;63009;-54
2021/02/20 21:46:32;;;;;;;0.50;0.50;;;;;;;9.39;53.67;96953.25;299395;216;63005;-55
2021/02/20 21:51:34;;;;;;;0.60;0.60;;;;;;;9.34;54.12;96937.06;299395;210;63009;-54
2021/02/20 21:56:36;;;;;;;0.60;0.60;;;;;;;9.28;54.29;96941.72;299395;210;63004;-54
2021/02/20 22:01:37;;;;;;;0.77;0.77;;;;;;;9.32;53.98;96942.75;299395;213;63009;-54
2021/02/20 22:06:42;;;;;;;0.60;0.60;;;;;;;9.35;54.38;96944.09;299395;215;63005;-54
2021/02/20 22:11:45;;;;;;;0.50;0.50;;;;;;;9.39;54.01;96948.62;299395;387;63009;-55
2021/02/20 22:16:47;;;;;;;0.60;0.60;;;;;;;9.24;54.76;96951.47;299394;198;64005;-54
2021/02/20 22:21:48;;;;;;;0.50;0.50;;;;;;;9.27;54.60;96948.22;299395;239;63009;-55
2021/02/20 22:26:49;;;;;;;0.52;0.52;;;;;;;9.20;55.30;96955.84;299395;277;63004;-54
2021/02/20 22:31:50;;;;;;;0.60;0.60;;;;;;;9.19;55.40;96954.22;299395;219;63009;-53
2021/02/20 22:36:51;;;;;;;0.60;0.60;;;;;;;9.11;55.86;96956.72;299395;224;63005;-55
2021/02/20 22:41:52;;;;;;;0.50;0.50;;;;;;;9.00;56.21;96964.94;299395;198;63008;-54
2021/02/20 22:46:53;;;;;;;0.50;0.50;;;;;;;8.96;56.43;96966.56;299395;236;63004;-54
2021/02/20 22:51:54;;;;;;;0.60;0.60;;;;;;;9.03;56.26;96967.03;299395;236;63009;-54
2021/02/20 22:56:55;;;;;;;0.57;0.57;;;;;;;9.07;55.98;96962.69;299395;296;63004;-54
2021/02/20 23:01:56;;;;;;;0.50;0.50;;;;;;;9.05;56.32;96959.44;299395;207;63009;-54
2021/02/20 23:06:57;;;;;;;0.60;0.60;;;;;;;9.05;56.81;96974.87;299395;199;63005;-54
2021/02/20 23:12:00;;;;;;;0.60;0.60;;;;;;;9.04;56.79;96979.50;299395;196;63009;-54
2021/02/20 23:22:24;;;;;;;0.52;0.52;;;;;;;8.99;57.13;96976.03;299395;210;63004;-54
2021/02/20 23:27:26;;;;;;;0.60;0.60;;;;;;;8.93;57.66;96979.84;299395;208;63008;-54
2021/02/20 23:32:30;;;;;;;0.60;0.60;;;;;;;8.83;57.85;96988.03;299395;299;63004;-54
2021/02/20 23:37:30;;;;;;;0.60;0.60;;;;;;;8.77;58.48;96989.13;299417;236;63019;-54
2021/02/20 23:42:31;;;;;;;0.50;0.50;;;;;;;8.70;58.34;96984.00;299395;274;63011;-55
2021/02/20 23:47:32;;;;;;;0.60;0.60;;;;;;;8.68;58.55;96997.81;299395;198;63009;-54
2021/02/20 23:52:33;;;;;;;0.60;0.60;;;;;;;8.76;58.16;96992.91;299395;198;63005;-54
2021/02/20 23:57:34;;;;;;;0.60;0.60;;;;;;;8.81;58.24;96988.28;299395;243;63009;-54
